Time;durP1;ratioP1;P1;durP2;ratioP2;P2;SDS_P1;SDS_P2;PMS_P1;PMS_P2;Temp;Humidity;BMP_temperature;BMP_pressure;BME280_temperature;BME280_humidity;BME280_pressure;Samples;Min_cycle;Max_cycle;Signal;HPM_P1;HPM_P2
2023/09/07 00:00:13;;;;;;;10.70;6.28;;;;;;;;;;4999698;28;20042;-67
2023/09/07 00:02:38;;;;;;;13.20;6.53;;;;;;;;;;4996252;28;20628;-67
2023/09/07 00:05:06;;;;;;;10.90;6.22;;;;;;;;;;4995299;28;20041;-67
2023/09/07 00:07:31;;;;;;;9.90;5.68;;;;;;;;;;4990276;28;20652;-67
2023/09/07 00:09:56;;;;;;;11.25;6.05;;;;;;;;;;4995653;28;20082;-67
2023/09/07 00:12:22;;;;;;;9.05;5.55;;;;;;;;;;5001470;28;20067;-67
2023/09/07 00:14:47;;;;;;;11.98;5.78;;;;;;;;;;4998357;28;20038;-67
2023/09/07 00:17:13;;;;;;;11.27;5.63;;;;;;;;;;4991442;28;20042;-67
2023/09/07 00:19:38;;;;;;;8.35;5.50;;;;;;;;;;4993145;28;20045;-67
2023/09/07 00:22:04;;;;;;;10.07;6.07;;;;;;;;;;4997424;28;20081;-67
2023/09/07 00:24:31;;;;;;;8.35;5.50;;;;;;;;;;4996198;28;20048;-67
2023/09/07 00:26:57;;;;;;;13.93;6.15;;;;;;;;;;4990647;28;20534;-67
2023/09/07 00:29:22;;;;;;;10.40;6.15;;;;;;;;;;4990739;28;20042;-68
2023/09/07 00:31:47;;;;;;;10.02;6.25;;;;;;;;;;4975114;28;20035;-68
2023/09/07 00:34:13;;;;;;;10.15;6.25;;;;;;;;;;4988526;28;20030;-67
2023/09/07 00:36:38;;;;;;;13.52;6.20;;;;;;;;;;4992985;28;20033;-68
2023/09/07 00:39:04;;;;;;;12.43;6.00;;;;;;;;;;4988141;28;20104;-68
2023/09/07 00:41:30;;;;;;;9.77;6.18;;;;;;;;;;4996814;28;20522;-68
2023/09/07 00:43:55;;;;;;;9.95;5.93;;;;;;;;;;4991762;28;20037;-68
2023/09/07 00:46:21;;;;;;;11.35;6.32;;;;;;;;;;4990476;28;20034;-68
2023/09/07 00:48:48;;;;;;;14.27;6.28;;;;;;;;;;4991251;28;20030;-68
2023/09/07 00:51:13;;;;;;;11.02;6.20;;;;;;;;;;4997104;28;20042;-68
2023/09/07 00:53:39;;;;;;;8.98;6.13;;;;;;;;;;4998312;28;20041;-68
2023/09/07 00:56:06;;;;;;;13.07;6.50;;;;;;;;;;4996269;28;20065;-68
2023/09/07 00:58:32;;;;;;;11.63;6.40;;;;;;;;;;5000046;28;20034;-67
2023/09/07 01:00:57;;;;;;;11.95;6.72;;;;;;;;;;4998928;28;20026;-68
2023/09/07 01:03:22;;;;;;;9.07;5.82;;;;;;;;;;4988952;28;20043;-67
2023/09/07 01:06:12;;;;;;;9.45;6.22;;;;;;;;;;4990405;28;20574;-68
2023/09/07 01:08:46;;;;;;;9.88;6.03;;;;;;;;;;4993768;28;20038;-68
2023/09/07 01:11:15;;;;;;;9.60;6.00;;;;;;;;;;4983154;28;20042;-68
2023/09/07 01:13:41;;;;;;;9.95;6.00;;;;;;;;;;4981656;28;20038;-68
2023/09/07 01:16:09;;;;;;;14.25;6.47;;;;;;;;;;4998516;28;20487;-68
2023/09/07 01:18:37;;;;;;;10.82;5.88;;;;;;;;;;4973924;28;20043;-68
2023/09/07 01:21:08;;;;;;;15.65;6.43;;;;;;;;;;4991109;28;20820;-68
2023/09/07 01:23:37;;;;;;;9.07;5.50;;;;;;;;;;4997508;28;20073;-68
2023/09/07 01:26:04;;;;;;;8.80;5.57;;;;;;;;;;4988690;28;20038;-68
2023/09/07 01:28:29;;;;;;;9.52;5.47;;;;;;;;;;4999547;28;20034;-67
2023/09/07 01:30:54;;;;;;;11.23;5.72;;;;;;;;;;4997011;28;20026;-68
2023/09/07 01:33:20;;;;;;;11.45;5.85;;;;;;;;;;4993841;28;20319;-68
2023/09/07 01:35:46;;;;;;;7.88;5.47;;;;;;;;;;4992999;28;20081;-67
2023/09/07 01:38:11;;;;;;;9.40;5.72;;;;;;;;;;5004164;28;20029;-68
2023/09/07 01:40:37;;;;;;;10.35;6.00;;;;;;;;;;4997697;28;20045;-68
2023/09/07 01:43:03;;;;;;;11.60;5.82;;;;;;;;;;4993470;28;20112;-68
2023/09/07 01:45:29;;;;;;;8.35;5.47;;;;;;;;;;4997279;28;20038;-68
2023/09/07 01:47:54;;;;;;;10.90;5.97;;;;;;;;;;4999649;28;20038;-68
2023/09/07 01:50:19;;;;;;;9.95;5.97;;;;;;;;;;4995558;28;20053;-68
2023/09/07 01:52:51;;;;;;;10.57;5.40;;;;;;;;;;4989278;28;20485;-68
2023/09/07 01:55:16;;;;;;;7.80;5.47;;;;;;;;;;4998099;28;20061;-68
2023/09/07 01:57:42;;;;;;;8.40;5.55;;;;;;;;;;4992857;28;20644;-68
2023/09/07 02:00:07;;;;;;;11.18;5.85;;;;;;;;;;4992958;28;20513;-68
2023/09/07 02:02:33;;;;;;;11.43;5.57;;;;;;;;;;4999511;28;20038;-68
2023/09/07 02:04:58;;;;;;;13.25;6.00;;;;;;;;;;4998890;28;20033;-68
2023/09/07 02:07:24;;;;;;;12.75;6.05;;;;;;;;;;4993497;28;20053;-67
2023/09/07 02:09:49;;;;;;;13.43;5.65;;;;;;;;;;4992994;28;20038;-67
2023/09/07 02:12:14;;;;;;;12.15;6.28;;;;;;;;;;4998299;28;20043;-67
2023/09/07 02:14:40;;;;;;;9.43;6.13;;;;;;;;;;4999127;28;20065;-68
2023/09/07 02:17:06;;;;;;;9.30;6.15;;;;;;;;;;4984787;28;20038;-67
2023/09/07 02:19:31;;;;;;;10.38;6.35;;;;;;;;;;4975987;28;20543;-68
2023/09/07 02:21:57;;;;;;;9.00;6.15;;;;;;;;;;4998372;28;20049;-67
2023/09/07 02:24:22;;;;;;;14.13;6.38;;;;;;;;;;5002641;28;20046;-67
2023/09/07 02:26:47;;;;;;;10.57;5.72;;;;;;;;;;4992578;28;20420;-68
2023/09/07 02:29:13;;;;;;;13.05;6.00;;;;;;;;;;4993922;28;20050;-67
2023/09/07 02:31:39;;;;;;;8.57;5.68;;;;;;;;;;4998588;28;20031;-68
2023/09/07 02:34:05;;;;;;;9.32;5.70;;;;;;;;;;4998247;28;20047;-67
2023/09/07 02:36:30;;;;;;;9.60;6.20;;;;;;;;;;4992546;28;20392;-68
2023/09/07 02:38:55;;;;;;;9.27;5.88;;;;;;;;;;4992892;28;20058;-68
2023/09/07 02:41:21;;;;;;;9.52;6.43;;;;;;;;;;4998296;28;20129;-68
2023/09/07 02:43:46;;;;;;;9.13;6.30;;;;;;;;;;4993563;28;20030;-67
2023/09/07 02:46:11;;;;;;;10.20;6.22;;;;;;;;;;4992119;28;20034;-67
2023/09/07 02:48:37;;;;;;;12.23;6.40;;;;;;;;;;4997058;28;20393;-68
2023/09/07 02:51:02;;;;;;;10.48;6.50;;;;;;;;;;4998030;28;20038;-67
2023/09/07 02:53:28;;;;;;;9.63;6.25;;;;;;;;;;4985964;28;20062;-67
2023/09/07 02:55:53;;;;;;;10.82;5.97;;;;;;;;;;4998470;28;20054;-67
2023/09/07 02:58:19;;;;;;;11.02;6.80;;;;;;;;;;4994557;28;20022;-67
2023/09/07 03:00:46;;;;;;;10.68;6.38;;;;;;;;;;4993364;28;20443;-67
2023/09/07 03:03:13;;;;;;;11.30;6.20;;;;;;;;;;4999250;28;20038;-67
2023/09/07 03:05:43;;;;;;;11.82;6.10;;;;;;;;;;5003047;28;20037;-67
2023/09/07 03:08:08;;;;;;;10.45;6.57;;;;;;;;;;4996235;28;20471;-67
2023/09/07 03:10:40;;;;;;;11.57;6.72;;;;;;;;;;4991726;28;20026;-67
2023/09/07 03:13:09;;;;;;;9.32;6.57;;;;;;;;;;4993263;28;20659;-67
2023/09/07 03:15:34;;;;;;;10.85;6.57;;;;;;;;;;4998209;28;20126;-67
2023/09/07 03:18:00;;;;;;;10.50;6.45;;;;;;;;;;4997588;28;20128;-67
2023/09/07 03:20:26;;;;;;;13.38;6.53;;;;;;;;;;4991531;28;20030;-67
2023/09/07 03:22:51;;;;;;;12.43;7.20;;;;;;;;;;4991588;28;20081;-67
2023/09/07 03:25:17;;;;;;;10.18;6.50;;;;;;;;;;4997831;28;20018;-67
2023/09/07 03:27:42;;;;;;;11.48;6.32;;;;;;;;;;4997277;28;20021;-67
2023/09/07 03:30:08;;;;;;;10.75;5.97;;;;;;;;;;4990205;28;20128;-68
2023/09/07 03:32:33;;;;;;;10.93;6.15;;;;;;;;;;4990825;28;20034;-67
2023/09/07 03:35:08;;;;;;;14.85;7.30;;;;;;;;;;4997760;28;20413;-68
2023/09/07 03:37:34;;;;;;;11.23;6.32;;;;;;;;;;4997760;28;20541;-68
2023/09/07 03:39:59;;;;;;;14.18;6.75;;;;;;;;;;4984785;28;20077;-68
2023/09/07 03:42:25;;;;;;;12.38;6.38;;;;;;;;;;4994189;28;20031;-67
2023/09/07 03:44:50;;;;;;;12.95;6.68;;;;;;;;;;4999500;28;20124;-67
2023/09/07 03:47:16;;;;;;;10.57;6.30;;;;;;;;;;4995323;28;20501;-68
2023/09/07 03:49:41;;;;;;;10.50;6.70;;;;;;;;;;4991232;28;20084;-67
2023/09/07 03:52:07;;;;;;;10.63;6.40;;;;;;;;;;4992494;28;20029;-67
2023/09/07 03:54:32;;;;;;;14.73;6.97;;;;;;;;;;4989126;28;20041;-67
2023/09/07 03:56:58;;;;;;;13.98;6.85;;;;;;;;;;4991578;28;20031;-67
2023/09/07 03:59:23;;;;;;;11.68;6.35;;;;;;;;;;4997691;28;20180;-67
2023/09/07 04:01:49;;;;;;;9.15;6.10;;;;;;;;;;4995839;28;20133;-67
2023/09/07 04:04:14;;;;;;;12.63;6.82;;;;;;;;;;4991816;28;20075;-67
2023/09/07 04:06:40;;;;;;;11.00;6.28;;;;;;;;;;4992556;28;20042;-67
2023/09/07 04:09:05;;;;;;;13.27;6.35;;;;;;;;;;4997139;28;20038;-67
2023/09/07 04:11:31;;;;;;;11.07;5.88;;;;;;;;;;4996594;28;20041;-67
2023/09/07 04:13:56;;;;;;;11.57;6.57;;;;;;;;;;4987392;28;20038;-67
2023/09/07 04:16:21;;;;;;;13.32;6.30;;;;;;;;;;4966825;28;20070;-67
2023/09/07 04:18:47;;;;;;;10.25;6.40;;;;;;;;;;4997137;28;20034;-67
2023/09/07 04:21:12;;;;;;;11.10;6.22;;;;;;;;;;4997194;28;20029;-67
2023/09/07 04:23:38;;;;;;;12.32;6.70;;;;;;;;;;4991263;28;20033;-67
2023/09/07 04:26:11;;;;;;;10.98;6.30;;;;;;;;;;4995641;28;20034;-67
2023/09/07 04:28:38;;;;;;;16.90;7.78;;;;;;;;;;5003768;28;20046;-67
2023/09/07 04:31:05;;;;;;;9.27;5.88;;;;;;;;;;5005382;28;20068;-67
2023/09/07 04:33:31;;;;;;;12.20;6.22;;;;;;;;;;4996192;28;20072;-67
2023/09/07 04:35:56;;;;;;;9.98;5.97;;;;;;;;;;4994307;28;20554;-68
2023/09/07 04:38:21;;;;;;;11.52;6.50;;;;;;;;;;5000292;28;20415;-68
2023/09/07 04:40:47;;;;;;;12.38;6.32;;;;;;;;;;4997965;28;20396;-67
2023/09/07 04:43:12;;;;;;;10.48;5.97;;;;;;;;;;4993452;28;20088;-67
2023/09/07 04:45:45;;;;;;;8.68;6.00;;;;;;;;;;4997369;28;20092;-67
2023/09/07 04:48:11;;;;;;;;;;;;;;;;;;5001044;28;20065;-68
2023/09/07 04:50:37;;;;;;;11.65;5.95;;;;;;;;;;4998315;28;20434;-67
2023/09/07 04:53:02;;;;;;;11.88;6.20;;;;;;;;;;4989510;28;20039;-67
2023/09/07 04:55:28;;;;;;;11.13;6.07;;;;;;;;;;4999420;28;20053;-67
2023/09/07 04:57:53;;;;;;;12.32;6.63;;;;;;;;;;4994194;28;20079;-68
2023/09/07 05:00:18;;;;;;;12.75;6.78;;;;;;;;;;4995509;28;20531;-67
2023/09/07 05:02:44;;;;;;;10.75;5.95;;;;;;;;;;4994862;28;20101;-67
2023/09/07 05:05:09;;;;;;;8.60;5.75;;;;;;;;;;4999836;28;20602;-67
2023/09/07 05:07:35;;;;;;;11.40;6.18;;;;;;;;;;4993955;28;20065;-68
2023/09/07 05:10:00;;;;;;;11.95;5.85;;;;;;;;;;4994685;28;20045;-68
2023/09/07 05:12:25;;;;;;;12.00;6.60;;;;;;;;;;4999743;28;20062;-67
2023/09/07 05:14:51;;;;;;;11.35;6.75;;;;;;;;;;5000431;28;20145;-67
2023/09/07 05:17:16;;;;;;;12.93;6.90;;;;;;;;;;4993793;28;20415;-67
2023/09/07 05:19:41;;;;;;;10.25;6.50;;;;;;;;;;4993759;28;20100;-67
2023/09/07 05:22:07;;;;;;;16.52;6.93;;;;;;;;;;5000192;28;20023;-67
2023/09/07 05:24:32;;;;;;;13.85;6.63;;;;;;;;;;4999949;28;20034;-67
2023/09/07 05:26:57;;;;;;;14.32;6.32;;;;;;;;;;4993113;28;20158;-68
2023/09/07 05:29:23;;;;;;;14.82;6.75;;;;;;;;;;4993979;28;20061;-67
2023/09/07 05:31:48;;;;;;;15.25;6.43;;;;;;;;;;4999925;28;20497;-67
2023/09/07 05:34:13;;;;;;;12.63;6.90;;;;;;;;;;5000727;28;20026;-67
2023/09/07 05:36:39;;;;;;;15.68;7.43;;;;;;;;;;4992966;28;20029;-67
2023/09/07 05:39:04;;;;;;;14.50;7.45;;;;;;;;;;4992754;28;20053;-67
2023/09/07 05:41:30;;;;;;;15.38;7.13;;;;;;;;;;5000266;28;20143;-67
2023/09/07 05:43:55;;;;;;;13.77;7.05;;;;;;;;;;5001522;28;20038;-67
2023/09/07 05:46:21;;;;;;;16.48;7.75;;;;;;;;;;4999630;28;20048;-67
2023/09/07 05:48:46;;;;;;;17.13;7.30;;;;;;;;;;4997101;28;20503;-67
2023/09/07 05:51:11;;;;;;;12.80;7.72;;;;;;;;;;4993511;28;20030;-67
2023/09/07 05:53:38;;;;;;;15.98;8.00;;;;;;;;;;4997829;28;20038;-67
2023/09/07 05:56:03;;;;;;;13.18;8.20;;;;;;;;;;5003780;28;20038;-68
2023/09/07 05:58:29;;;;;;;14.35;8.25;;;;;;;;;;5000231;28;20022;-67
2023/09/07 06:00:54;;;;;;;18.40;9.75;;;;;;;;;;4994402;28;20049;-67
2023/09/07 06:03:19;;;;;;;16.63;9.65;;;;;;;;;;5004405;28;20104;-67
2023/09/07 06:05:45;;;;;;;19.23;9.68;;;;;;;;;;4991908;28;20072;-67
2023/09/07 06:08:10;;;;;;;16.15;9.23;;;;;;;;;;4993587;28;20039;-67
2023/09/07 06:10:36;;;;;;;14.60;8.70;;;;;;;;;;4999322;28;20512;-67
2023/09/07 06:13:01;;;;;;;18.58;9.15;;;;;;;;;;4997932;28;20457;-67
2023/09/07 06:15:27;;;;;;;19.60;10.10;;;;;;;;;;4991741;28;20149;-67
2023/09/07 06:17:52;;;;;;;13.70;8.32;;;;;;;;;;4978364;28;20050;-67
2023/09/07 06:20:19;;;;;;;14.43;7.85;;;;;;;;;;4967318;28;20708;-68
2023/09/07 06:22:45;;;;;;;17.45;9.02;;;;;;;;;;4995598;28;20745;-67
2023/09/07 06:25:10;;;;;;;14.93;8.23;;;;;;;;;;4983276;28;20120;-67
2023/09/07 06:27:35;;;;;;;14.95;8.57;;;;;;;;;;4974284;28;20117;-67
2023/09/07 06:30:01;;;;;;;15.93;8.43;;;;;;;;;;4973939;28;20061;-68
2023/09/07 06:32:26;;;;;;;15.00;8.80;;;;;;;;;;4966415;28;20035;-68
2023/09/07 06:34:52;;;;;;;14.98;9.25;;;;;;;;;;4995942;28;20046;-68
2023/09/07 06:37:17;;;;;;;16.27;8.80;;;;;;;;;;4996771;28;20029;-67
2023/09/07 06:39:43;;;;;;;19.30;8.45;;;;;;;;;;4987978;28;20050;-68
2023/09/07 06:42:09;;;;;;;13.02;7.85;;;;;;;;;;5002458;28;20065;-68
2023/09/07 06:44:35;;;;;;;12.30;8.07;;;;;;;;;;4991479;28;20101;-68
2023/09/07 06:47:00;;;;;;;11.10;7.63;;;;;;;;;;4995851;28;20132;-68
2023/09/07 06:49:25;;;;;;;15.75;8.48;;;;;;;;;;4998254;28;20026;-68
2023/09/07 06:51:51;;;;;;;16.80;7.82;;;;;;;;;;4993867;28;20377;-68
2023/09/07 06:54:16;;;;;;;12.75;7.72;;;;;;;;;;5001171;28;20041;-68
2023/09/07 06:56:41;;;;;;;11.85;7.15;;;;;;;;;;4993697;28;20033;-68
2023/09/07 06:59:07;;;;;;;14.13;8.18;;;;;;;;;;4984388;28;20136;-68
2023/09/07 07:01:32;;;;;;;13.13;7.50;;;;;;;;;;4974014;28;20277;-68
2023/09/07 07:03:58;;;;;;;13.30;8.27;;;;;;;;;;4987381;28;20041;-68
2023/09/07 07:06:24;;;;;;;16.05;8.23;;;;;;;;;;5003141;28;20538;-68
2023/09/07 07:08:49;;;;;;;22.65;8.63;;;;;;;;;;4991162;28;20038;-68
2023/09/07 07:11:14;;;;;;;18.83;8.98;;;;;;;;;;4994531;28;20085;-68
2023/09/07 07:13:40;;;;;;;19.38;8.90;;;;;;;;;;4998431;28;20073;-68
2023/09/07 07:16:06;;;;;;;18.55;8.93;;;;;;;;;;5000683;28;20157;-67
2023/09/07 07:18:31;;;;;;;15.68;8.27;;;;;;;;;;4998345;28;20110;-67
2023/09/07 07:20:57;;;;;;;18.42;8.10;;;;;;;;;;4997783;28;20590;-67
2023/09/07 07:23:22;;;;;;;21.35;7.70;;;;;;;;;;4995254;28;20412;-68
2023/09/07 07:25:47;;;;;;;17.67;8.55;;;;;;;;;;4994233;28;20424;-68
2023/09/07 07:28:13;;;;;;;22.23;7.60;;;;;;;;;;4997907;28;20076;-68
2023/09/07 07:30:42;;;;;;;16.48;8.02;;;;;;;;;;4992901;28;20042;-68
2023/09/07 07:33:08;;;;;;;15.15;7.40;;;;;;;;;;4989646;28;20038;-67
2023/09/07 07:35:37;;;;;;;19.70;7.65;;;;;;;;;;4990342;28;20038;-68
2023/09/07 07:38:03;;;;;;;13.93;6.78;;;;;;;;;;4995024;28;20030;-67
2023/09/07 07:40:32;;;;;;;22.52;7.20;;;;;;;;;;4991634;28;20099;-67
2023/09/07 07:42:57;;;;;;;17.65;7.70;;;;;;;;;;4991358;28;20117;-67
2023/09/07 07:45:23;;;;;;;16.33;7.88;;;;;;;;;;5000428;28;20706;-67
2023/09/07 07:47:49;;;;;;;22.52;7.25;;;;;;;;;;4990732;28;20035;-67
2023/09/07 07:50:15;;;;;;;19.73;7.60;;;;;;;;;;4994425;28;20038;-67
2023/09/07 07:52:41;;;;;;;14.77;7.60;;;;;;;;;;4997436;28;20034;-67
2023/09/07 07:55:07;;;;;;;12.38;7.38;;;;;;;;;;4993126;28;20128;-67
2023/09/07 07:57:32;;;;;;;15.10;7.43;;;;;;;;;;4988784;28;20146;-67
2023/09/07 07:59:58;;;;;;;18.50;7.47;;;;;;;;;;4998437;28;20403;-67
2023/09/07 08:02:23;;;;;;;16.52;7.30;;;;;;;;;;5000622;28;20042;-67
2023/09/07 08:04:49;;;;;;;13.52;6.70;;;;;;;;;;4996194;28;20061;-67
2023/09/07 08:07:14;;;;;;;19.48;7.25;;;;;;;;;;4981554;28;20416;-67
2023/09/07 08:09:39;;;;;;;13.23;6.90;;;;;;;;;;4978998;28;20050;-67
2023/09/07 08:12:05;;;;;;;12.18;6.22;;;;;;;;;;4942139;28;20038;-67
2023/09/07 08:14:31;;;;;;;13.70;6.60;;;;;;;;;;4953117;28;20042;-67
2023/09/07 08:16:57;;;;;;;19.50;7.03;;;;;;;;;;4951795;28;20076;-67
2023/09/07 08:19:24;;;;;;;17.60;7.38;;;;;;;;;;4984169;28;20073;-67
2023/09/07 08:21:49;;;;;;;13.90;6.40;;;;;;;;;;4999632;28;20243;-68
2023/09/07 08:24:15;;;;;;;13.88;7.85;;;;;;;;;;4996682;28;20495;-67
2023/09/07 08:26:40;;;;;;;13.77;7.50;;;;;;;;;;4991482;28;20046;-67
2023/09/07 08:29:07;;;;;;;20.13;6.55;;;;;;;;;;4995528;28;20043;-67
2023/09/07 08:31:33;;;;;;;13.93;6.13;;;;;;;;;;4999089;28;20089;-67
2023/09/07 08:34:04;;;;;;;11.30;5.65;;;;;;;;;;5001141;28;20077;-67
2023/09/07 08:36:33;;;;;;;10.90;6.13;;;;;;;;;;5000726;28;20046;-67
2023/09/07 08:39:05;;;;;;;16.38;6.38;;;;;;;;;;4993605;28;20061;-67
2023/09/07 08:41:37;;;;;;;10.60;5.80;;;;;;;;;;4999281;28;20050;-67
2023/09/07 08:44:04;;;;;;;12.23;6.38;;;;;;;;;;4996801;28;20041;-65
2023/09/07 08:46:31;;;;;;;11.80;5.82;;;;;;;;;;4995210;28;20044;-67
2023/09/07 08:48:59;;;;;;;9.90;6.30;;;;;;;;;;4998541;28;20665;-67
2023/09/07 08:51:27;;;;;;;14.45;6.10;;;;;;;;;;5003447;28;20050;-67
2023/09/07 08:53:53;;;;;;;13.77;6.50;;;;;;;;;;4986734;28;20061;-67
2023/09/07 08:56:21;;;;;;;10.52;6.38;;;;;;;;;;4972608;28;20046;-67
2023/09/07 08:58:49;;;;;;;12.02;6.00;;;;;;;;;;4994186;28;20034;-67
2023/09/07 09:01:14;;;;;;;11.52;5.82;;;;;;;;;;5009713;28;20273;-67
2023/09/07 09:03:42;;;;;;;11.27;5.47;;;;;;;;;;4980162;28;20495;-67
2023/09/07 09:06:08;;;;;;;11.35;6.47;;;;;;;;;;4973068;28;20420;-67
2023/09/07 09:08:44;;;;;;;12.02;6.25;;;;;;;;;;4980327;28;20076;-68
2023/09/07 09:11:10;;;;;;;9.90;5.50;;;;;;;;;;4971575;28;20046;-67
2023/09/07 09:13:36;;;;;;;11.77;5.85;;;;;;;;;;4976514;28;20073;-67
2023/09/07 09:16:02;;;;;;;11.77;6.15;;;;;;;;;;4978704;28;20034;-67
2023/09/07 09:18:28;;;;;;;7.13;5.47;;;;;;;;;;4986535;28;20574;-68
2023/09/07 09:20:58;;;;;;;10.27;6.28;;;;;;;;;;4976979;28;20137;-67
2023/09/07 09:23:25;;;;;;;9.10;6.13;;;;;;;;;;4997475;28;20070;-67
2023/09/07 09:25:51;;;;;;;10.52;5.82;;;;;;;;;;4985506;28;20034;-67
2023/09/07 09:28:16;;;;;;;8.75;6.20;;;;;;;;;;4997694;28;20423;-67
2023/09/07 09:30:45;;;;;;;10.02;6.38;;;;;;;;;;4995995;28;20029;-67
2023/09/07 09:33:11;;;;;;;10.40;5.75;;;;;;;;;;4978917;28;20508;-67
2023/09/07 09:35:38;;;;;;;10.57;5.55;;;;;;;;;;4987005;28;20045;-67
2023/09/07 09:38:04;;;;;;;9.88;5.93;;;;;;;;;;4996308;28;20506;-67
2023/09/07 09:40:31;;;;;;;11.40;5.57;;;;;;;;;;4993099;28;20137;-67
2023/09/07 09:42:59;;;;;;;9.50;5.40;;;;;;;;;;4992472;28;20089;-67
2023/09/07 09:45:27;;;;;;;10.23;5.65;;;;;;;;;;4974997;28;20160;-67
2023/09/07 09:47:55;;;;;;;7.82;5.35;;;;;;;;;;4986401;28;20129;-67
2023/09/07 09:50:22;;;;;;;6.93;5.28;;;;;;;;;;4994608;28;20030;-67
2023/09/07 09:52:48;;;;;;;8.55;5.80;;;;;;;;;;4999502;28;20029;-67
2023/09/07 09:55:15;;;;;;;8.23;5.93;;;;;;;;;;4996185;28;20119;-67
2023/09/07 09:57:41;;;;;;;9.63;5.70;;;;;;;;;;4991585;28;20060;-67
2023/09/07 10:00:25;;;;;;;10.60;5.20;;;;;;;;;;4995153;28;20893;-67
2023/09/07 10:03:16;;;;;;;9.82;5.47;;;;;;;;;;4974387;28;20042;-67
2023/09/07 10:05:44;;;;;;;7.10;5.15;;;;;;;;;;4981234;28;20065;-67
2023/09/07 10:08:13;;;;;;;9.02;5.68;;;;;;;;;;4994951;28;20088;-67
2023/09/07 10:10:40;;;;;;;8.95;5.82;;;;;;;;;;4999511;28;20143;-67
2023/09/07 10:13:06;;;;;;;9.40;5.20;;;;;;;;;;4999105;28;20044;-67
2023/09/07 10:15:33;;;;;;;8.30;5.10;;;;;;;;;;4995789;28;20132;-67
2023/09/07 10:18:15;;;;;;;8.43;5.00;;;;;;;;;;4994735;28;20088;-67
2023/09/07 10:20:58;;;;;;;9.40;4.90;;;;;;;;;;4982255;28;20104;-67
2023/09/07 10:23:45;;;;;;;9.15;5.18;;;;;;;;;;4991057;28;20643;-68
2023/09/07 10:26:15;;;;;;;8.18;5.18;;;;;;;;;;4991449;28;20031;-67
2023/09/07 10:28:42;;;;;;;6.47;4.90;;;;;;;;;;4979702;28;20038;-67
2023/09/07 10:31:18;;;;;;;7.75;5.18;;;;;;;;;;4990915;28;20637;-67
2023/09/07 10:33:44;;;;;;;8.98;5.28;;;;;;;;;;4993123;28;20084;-67
2023/09/07 10:36:24;;;;;;;8.55;4.95;;;;;;;;;;4987340;28;20065;-67
2023/09/07 10:38:52;;;;;;;10.15;4.93;;;;;;;;;;4992447;28;20206;-67
2023/09/07 10:41:18;;;;;;;6.80;4.90;;;;;;;;;;4998635;28;20022;-67
2023/09/07 10:43:49;;;;;;;8.30;4.97;;;;;;;;;;4993003;28;20103;-67
2023/09/07 10:46:14;;;;;;;6.50;4.57;;;;;;;;;;4990729;28;20520;-67
2023/09/07 10:48:40;;;;;;;7.00;4.90;;;;;;;;;;4995745;28;20050;-67
2023/09/07 10:51:06;;;;;;;13.05;5.10;;;;;;;;;;4997874;28;20046;-67
2023/09/07 10:53:32;;;;;;;9.60;5.00;;;;;;;;;;4985378;28;20033;-67
2023/09/07 10:56:04;;;;;;;12.98;5.25;;;;;;;;;;4998413;28;20661;-67
2023/09/07 10:58:35;;;;;;;8.23;5.10;;;;;;;;;;4994898;28;20041;-67
2023/09/07 11:01:01;;;;;;;8.27;5.70;;;;;;;;;;4991535;28;20044;-67
2023/09/07 11:03:27;;;;;;;6.95;5.30;;;;;;;;;;4992675;28;20038;-67
2023/09/07 11:06:03;;;;;;;10.07;5.03;;;;;;;;;;4997750;28;20069;-67
2023/09/07 11:08:32;;;;;;;12.35;5.38;;;;;;;;;;4982336;28;20036;-67
2023/09/07 11:10:58;;;;;;;10.38;5.28;;;;;;;;;;4990456;28;20455;-67
2023/09/07 11:13:24;;;;;;;7.38;4.75;;;;;;;;;;4983614;28;20526;-67
2023/09/07 11:15:54;;;;;;;9.25;4.78;;;;;;;;;;4983237;28;20065;-68
2023/09/07 11:18:23;;;;;;;6.30;4.97;;;;;;;;;;4996245;28;20129;-69
2023/09/07 11:20:49;;;;;;;7.00;5.10;;;;;;;;;;4993244;28;20025;-68
2023/09/07 11:23:15;;;;;;;8.48;5.38;;;;;;;;;;4991380;28;20426;-68
2023/09/07 11:25:41;;;;;;;7.80;5.05;;;;;;;;;;4994175;28;20050;-68
2023/09/07 11:28:08;;;;;;;7.50;4.90;;;;;;;;;;5001816;28;20116;-68
2023/09/07 11:30:34;;;;;;;6.10;4.57;;;;;;;;;;4993483;28;20096;-68
2023/09/07 11:33:09;;;;;;;10.80;4.82;;;;;;;;;;4977721;28;20045;-68
2023/09/07 11:35:34;;;;;;;8.93;5.25;;;;;;;;;;4994987;28;20033;-68
2023/09/07 11:38:04;;;;;;;6.88;4.82;;;;;;;;;;4997824;28;20419;-68
2023/09/07 11:40:33;;;;;;;7.43;4.70;;;;;;;;;;4993135;28;20038;-67
2023/09/07 11:42:58;;;;;;;6.43;4.95;;;;;;;;;;4994293;28;20435;-68
2023/09/07 11:45:24;;;;;;;6.85;4.75;;;;;;;;;;4997669;28;20045;-68
2023/09/07 11:47:49;;;;;;;11.02;5.10;;;;;;;;;;4998800;28;20066;-68
2023/09/07 11:50:17;;;;;;;6.40;4.85;;;;;;;;;;4994105;28;20585;-67
2023/09/07 11:52:43;;;;;;;7.30;5.47;;;;;;;;;;4988459;28;20096;-67
2023/09/07 11:55:10;;;;;;;6.43;4.53;;;;;;;;;;4994242;28;20037;-67
2023/09/07 11:57:36;;;;;;;8.93;4.78;;;;;;;;;;4989603;28;20034;-67
2023/09/07 12:00:02;;;;;;;9.55;4.90;;;;;;;;;;4986624;28;20041;-68
2023/09/07 12:02:27;;;;;;;10.13;5.07;;;;;;;;;;4980680;28;20037;-68
2023/09/07 12:04:54;;;;;;;6.10;4.90;;;;;;;;;;4996781;28;20046;-68
2023/09/07 12:07:20;;;;;;;11.50;4.68;;;;;;;;;;4995096;28;20510;-68
2023/09/07 12:09:45;;;;;;;9.18;4.95;;;;;;;;;;4990997;28;20392;-68
2023/09/07 12:12:10;;;;;;;7.40;4.97;;;;;;;;;;4992956;28;20031;-68
2023/09/07 12:14:36;;;;;;;7.32;4.85;;;;;;;;;;4999916;28;20571;-68
2023/09/07 12:17:01;;;;;;;7.38;4.82;;;;;;;;;;4995487;28;20061;-68
2023/09/07 12:19:26;;;;;;;8.77;4.75;;;;;;;;;;4990689;28;20041;-68
2023/09/07 12:21:52;;;;;;;11.05;4.75;;;;;;;;;;4992584;28;20039;-67
2023/09/07 12:24:17;;;;;;;9.20;4.82;;;;;;;;;;4997168;28;20030;-68
2023/09/07 12:26:43;;;;;;;6.55;4.22;;;;;;;;;;4988392;28;20117;-68
2023/09/07 12:29:08;;;;;;;9.55;4.85;;;;;;;;;;4992396;28;20047;-68
2023/09/07 12:31:34;;;;;;;8.75;4.45;;;;;;;;;;4988257;28;20124;-68
2023/09/07 12:33:59;;;;;;;8.48;4.28;;;;;;;;;;4992912;28;20393;-67
2023/09/07 12:36:28;;;;;;;10.32;4.45;;;;;;;;;;4999039;28;20121;-68
2023/09/07 12:38:53;;;;;;;6.00;4.50;;;;;;;;;;4991964;28;20062;-68
2023/09/07 12:41:19;;;;;;;8.90;4.80;;;;;;;;;;4999659;28;20034;-68
2023/09/07 12:43:44;;;;;;;8.52;4.72;;;;;;;;;;4994530;28;20046;-68
2023/09/07 12:46:09;;;;;;;6.93;4.45;;;;;;;;;;4999336;28;20520;-67
2023/09/07 12:48:35;;;;;;;6.65;4.53;;;;;;;;;;4996008;28;20044;-68
2023/09/07 12:51:00;;;;;;;12.68;4.97;;;;;;;;;;4993895;28;20499;-68
2023/09/07 12:53:26;;;;;;;6.28;4.50;;;;;;;;;;4999351;28;20114;-67
2023/09/07 12:55:54;;;;;;;13.23;5.25;;;;;;;;;;4999738;28;20034;-68
2023/09/07 12:58:20;;;;;;;5.40;4.60;;;;;;;;;;4996448;28;20057;-67
2023/09/07 13:00:47;;;;;;;5.95;4.35;;;;;;;;;;4993461;28;20558;-67
2023/09/07 13:03:14;;;;;;;5.35;4.22;;;;;;;;;;4997494;28;20515;-67
2023/09/07 13:05:39;;;;;;;6.50;4.47;;;;;;;;;;5000840;28;20029;-67
2023/09/07 13:08:06;;;;;;;7.45;4.63;;;;;;;;;;5000105;28;20412;-67
2023/09/07 13:10:32;;;;;;;9.82;4.72;;;;;;;;;;4995665;28;20105;-67
2023/09/07 13:12:57;;;;;;;5.38;4.13;;;;;;;;;;4996300;28;20120;-67
2023/09/07 13:15:23;;;;;;;7.97;4.28;;;;;;;;;;4999849;28;20034;-67
2023/09/07 13:17:48;;;;;;;6.18;4.28;;;;;;;;;;4971463;28;20121;-67
2023/09/07 13:20:14;;;;;;;10.30;4.65;;;;;;;;;;4983641;28;20069;-67
2023/09/07 13:22:39;;;;;;;5.63;4.13;;;;;;;;;;4998570;28;20065;-67
2023/09/07 13:25:05;;;;;;;8.57;4.43;;;;;;;;;;4989507;28;20669;-67
2023/09/07 13:27:31;;;;;;;6.72;4.20;;;;;;;;;;4997198;28;20113;-67
2023/09/07 13:29:57;;;;;;;7.70;4.70;;;;;;;;;;4993870;28;20068;-67
2023/09/07 13:32:24;;;;;;;6.50;4.10;;;;;;;;;;4995251;28;20129;-67
2023/09/07 13:34:49;;;;;;;6.20;4.50;;;;;;;;;;4991040;28;20045;-67
2023/09/07 13:37:15;;;;;;;7.65;4.35;;;;;;;;;;5002727;28;20033;-67
2023/09/07 13:39:40;;;;;;;5.13;3.95;;;;;;;;;;4989230;28;20660;-68
2023/09/07 13:42:05;;;;;;;5.40;3.97;;;;;;;;;;4996838;28;20030;-67
2023/09/07 13:44:31;;;;;;;5.95;4.97;;;;;;;;;;5000532;28;20433;-67
2023/09/07 13:46:56;;;;;;;6.40;4.32;;;;;;;;;;4977988;28;20046;-67
2023/09/07 13:49:21;;;;;;;9.23;4.00;;;;;;;;;;4998585;28;20033;-67
2023/09/07 13:51:47;;;;;;;5.35;4.10;;;;;;;;;;4993470;28;20185;-67
2023/09/07 13:54:12;;;;;;;5.25;4.00;;;;;;;;;;4991710;28;20042;-68
2023/09/07 13:56:38;;;;;;;5.82;4.50;;;;;;;;;;4997526;28;20053;-67
2023/09/07 13:59:04;;;;;;;9.48;4.85;;;;;;;;;;4999077;28;20037;-67
2023/09/07 14:01:29;;;;;;;6.88;4.50;;;;;;;;;;4993680;28;20030;-67
2023/09/07 14:03:55;;;;;;;7.63;4.60;;;;;;;;;;4992636;28;20026;-67
2023/09/07 14:06:23;;;;;;;5.93;4.40;;;;;;;;;;4995253;28;20626;-67
2023/09/07 14:08:48;;;;;;;6.68;4.38;;;;;;;;;;4999248;28;20035;-67
2023/09/07 14:11:14;;;;;;;6.95;4.30;;;;;;;;;;5001159;28;20053;-67
2023/09/07 14:13:39;;;;;;;5.70;4.45;;;;;;;;;;4998956;28;20500;-67
2023/09/07 14:16:05;;;;;;;6.47;4.28;;;;;;;;;;4995101;28;20563;-67
2023/09/07 14:18:30;;;;;;;5.95;4.35;;;;;;;;;;4992365;28;20049;-67
2023/09/07 14:20:58;;;;;;;5.30;4.28;;;;;;;;;;4995383;28;20113;-67
2023/09/07 14:23:25;;;;;;;12.52;4.65;;;;;;;;;;4998312;28;20081;-67
2023/09/07 14:25:51;;;;;;;10.88;4.38;;;;;;;;;;4986263;28;20026;-67
2023/09/07 14:28:17;;;;;;;5.45;4.38;;;;;;;;;;4999203;28;20029;-67
2023/09/07 14:30:42;;;;;;;4.90;4.28;;;;;;;;;;4981640;28;20038;-67